createdAt,value
2023-02-18T00:05:31.659Z,39.03
2023-02-18T00:12:33.184Z,37.40
2023-02-18T00:19:34.756Z,27.65
2023-02-18T00:26:36.439Z,28.27
2023-02-18T00:33:38.141Z,33.90
2023-02-18T00:40:40.258Z,38.65
2023-02-18T00:47:41.937Z,41.08
2023-02-18T00:54:43.594Z,42.28
2023-02-18T01:01:45.611Z,37.20
2023-02-18T01:08:47.188Z,38.33
2023-02-18T01:15:48.913Z,39.05
2023-02-18T01:22:50.573Z,40.47
2023-02-18T01:29:52.270Z,37.97
2023-02-18T01:36:53.937Z,39.95
2023-02-18T01:44:32.971Z,40.35
2023-02-18T01:51:39.843Z,42.75
2023-02-18T01:58:41.461Z,43.38
2023-02-18T02:05:43.107Z,53.00
2023-02-18T02:12:51.467Z,53.17
2023-02-18T02:20:11.974Z,54.42
2023-02-18T02:27:21.490Z,57.47
2023-02-18T02:34:31.901Z,57.38
2023-02-18T02:41:46.395Z,60.70
2023-02-18T02:49:08.904Z,65.72
2023-02-18T02:56:18.139Z,47.83
2023-02-18T03:03:39.023Z,31.05
2023-02-18T03:11:09.899Z,31.77
2023-02-18T03:18:20.124Z,25.35
2023-02-18T03:25:22.113Z,24.90
2023-02-18T03:32:24.204Z,20.00
2023-02-18T03:39:27.577Z,27.90
2023-02-18T03:46:29.277Z,35.83
2023-02-18T03:53:31.424Z,39.50
2023-02-18T04:00:33.135Z,30.83
2023-02-18T04:07:35.030Z,28.20
2023-02-18T04:14:36.607Z,38.17
2023-02-18T04:21:38.198Z,39.53
2023-02-18T04:28:40.085Z,42.45
2023-02-18T04:35:42.126Z,42.55
2023-02-18T04:42:43.784Z,45.13
2023-02-18T04:49:45.354Z,45.65
2023-02-18T04:56:46.956Z,42.85
2023-02-18T05:03:48.593Z,20.73
2023-02-18T05:10:50.328Z,36.58
2023-02-18T05:17:51.956Z,55.00
2023-02-18T05:24:53.502Z,56.78
2023-02-18T05:31:55.300Z,69.35
2023-02-18T05:38:57.001Z,48.25
2023-02-18T05:45:58.537Z,100.97
2023-02-18T05:53:00.274Z,28.75
2023-02-18T06:00:02.017Z,41.53
2023-02-18T06:07:06.741Z,77.40
2023-02-18T06:14:08.344Z,47.17
2023-02-18T06:21:09.920Z,51.00
2023-02-18T06:28:11.518Z,40.20
2023-02-18T06:35:13.204Z,92.90
2023-02-18T06:42:14.775Z,49.45
2023-02-18T06:49:16.353Z,28.50
2023-02-18T06:56:18.070Z,15.35
2023-02-18T07:03:19.773Z,18.23
2023-02-18T07:10:21.452Z,24.17
2023-02-18T07:17:23.034Z,31.45
2023-02-18T07:24:24.652Z,26.92
2023-02-18T07:31:26.307Z,25.33
2023-02-18T07:38:28.242Z,24.60
2023-02-18T07:45:29.836Z,26.58
2023-02-18T07:52:31.531Z,31.30
2023-02-18T07:59:33.212Z,35.65
2023-02-18T08:06:42.718Z,35.15
2023-02-18T08:13:46.916Z,41.00
2023-02-18T08:20:48.860Z,47.60
2023-02-18T08:27:50.390Z,46.15
2023-02-18T08:34:51.930Z,47.47
2023-02-18T08:41:53.493Z,48.70
2023-02-18T08:48:55.055Z,50.50
2023-02-18T08:55:56.576Z,52.88
2023-02-18T09:02:58.217Z,49.85
2023-02-18T09:09:59.874Z,51.53
2023-02-18T09:17:01.706Z,49.30
2023-02-18T09:24:03.565Z,53.22
2023-02-18T09:31:09.950Z,48.22
2023-02-18T09:38:12.489Z,52.90
2023-02-18T09:45:14.156Z,48.33
2023-02-18T09:52:29.914Z,51.95
2023-02-18T09:59:31.618Z,52.53
2023-02-18T10:06:34.094Z,47.78
2023-02-18T10:13:35.709Z,48.83
2023-02-18T10:20:37.282Z,50.50
2023-02-18T10:27:39.005Z,52.35
2023-02-18T10:34:47.623Z,52.90
2023-02-18T10:42:08.465Z,51.33
2023-02-18T10:49:29.724Z,50.47
2023-02-18T10:56:48.670Z,54.20
2023-02-18T11:03:55.176Z,52.60
2023-02-18T11:10:57.116Z,56.90
2023-02-18T11:18:11.526Z,62.22
2023-02-18T11:25:33.081Z,60.95
2023-02-18T11:32:35.408Z,60.90
2023-02-18T11:39:36.962Z,62.53
2023-02-18T11:46:38.562Z,62.38
2023-02-18T11:54:01.302Z,63.50
2023-02-18T12:01:02.920Z,63.08
2023-02-18T12:08:15.459Z,59.78
2023-02-18T12:15:22.185Z,61.85
2023-02-18T12:22:43.011Z,60.05
2023-02-18T12:30:09.006Z,66.70
2023-02-18T12:37:46.311Z,60.47
2023-02-18T12:45:06.457Z,61.42
2023-02-18T12:52:26.089Z,54.30
2023-02-18T13:00:17.115Z,64.43
2023-02-18T13:07:33.576Z,78.05
2023-02-18T13:14:57.426Z,41.08
2023-02-18T13:22:00.557Z,49.03
2023-02-18T13:29:14.102Z,15.68
2023-02-18T13:36:22.079Z,30.27
2023-02-18T13:43:23.540Z,13.15
2023-02-18T13:50:29.157Z,48.38
2023-02-18T13:57:31.978Z,49.47
2023-02-18T14:04:36.489Z,54.30
2023-02-18T14:11:48.024Z,58.38
2023-02-18T14:18:57.881Z,28.80
2023-02-18T14:26:14.867Z,4.83
2023-02-18T14:33:16.538Z,4.55
2023-02-18T14:40:26.524Z,4.45
2023-02-18T14:47:41.844Z,3.00
2023-02-18T14:54:44.351Z,2.50
2023-02-18T15:01:46.758Z,4.97
2023-02-18T15:08:48.389Z,2.25
2023-02-18T15:15:52.241Z,2.78
2023-02-18T15:22:53.858Z,4.28
2023-02-18T15:30:20.162Z,6.95
2023-02-18T15:37:21.779Z,6.22
2023-02-18T15:44:24.836Z,2.70
2023-02-18T15:51:28.673Z,1.65
2023-02-18T15:58:31.430Z,1.70
2023-02-18T16:05:37.284Z,5.70
2023-02-18T16:12:39.241Z,1.60
2023-02-18T16:20:02.905Z,7.40
2023-02-18T16:27:07.494Z,1.70
2023-02-18T16:34:09.294Z,1.85
2023-02-18T16:41:14.314Z,1.88
2023-02-18T16:48:37.276Z,1.98
2023-02-18T16:55:38.899Z,5.20
2023-02-18T17:02:40.579Z,1.98
2023-02-18T17:09:42.127Z,2.05
2023-02-18T17:16:44.832Z,3.22
2023-02-18T17:23:46.549Z,2.47
2023-02-18T17:30:56.562Z,3.45
2023-02-18T17:37:58.369Z,2.45
2023-02-18T17:45:01.382Z,2.20
2023-02-18T17:52:03.103Z,2.63
2023-02-18T17:59:04.686Z,2.95
2023-02-18T18:06:09.990Z,7.25
2023-02-18T18:13:19.290Z,4.72
2023-02-18T18:20:20.930Z,2.13
2023-02-18T18:27:22.528Z,2.50
2023-02-18T18:34:24.102Z,2.40
2023-02-18T18:41:25.616Z,2.55
2023-02-18T18:48:27.418Z,12.85
2023-02-18T18:55:33.851Z,23.63
2023-02-18T19:02:35.524Z,2.72
2023-02-18T19:09:37.049Z,2.85
2023-02-18T19:16:39.103Z,2.65
2023-02-18T19:23:40.752Z,2.72
2023-02-18T19:30:42.526Z,2.78
2023-02-18T19:37:44.307Z,10.93
2023-02-18T19:44:45.921Z,55.13
2023-02-18T19:51:47.471Z,2.92
2023-02-18T19:58:48.982Z,2.42
2023-02-18T20:05:50.531Z,3.92
2023-02-18T20:12:53.353Z,2.75
2023-02-18T20:19:54.987Z,4.55
2023-02-18T20:26:57.471Z,7.80
2023-02-18T20:33:59.063Z,4.68
2023-02-18T20:41:05.264Z,17.05
2023-02-18T20:48:06.824Z,7.07
2023-02-18T20:55:08.496Z,4.80
2023-02-18T21:02:12.613Z,6.57
2023-02-18T21:09:14.772Z,2.90
2023-02-18T21:16:16.640Z,3.22
2023-02-18T21:23:18.244Z,2.72
2023-02-18T21:30:19.930Z,3.55
2023-02-18T21:37:21.618Z,3.58
2023-02-18T21:44:30.038Z,5.78
2023-02-18T21:51:57.979Z,6.43
2023-02-18T21:58:59.623Z,3.22
2023-02-18T22:06:01.152Z,4.70
2023-02-18T22:13:02.733Z,6.95
2023-02-18T22:20:08.255Z,5.55
2023-02-18T22:27:09.982Z,3.00
2023-02-18T22:34:11.517Z,8.93
2023-02-18T22:41:13.616Z,3.17
2023-02-18T22:48:15.177Z,3.50
2023-02-18T22:55:16.713Z,2.60
2023-02-18T23:02:19.759Z,2.45
2023-02-18T23:09:23.731Z,3.28
2023-02-18T23:16:25.336Z,2.85
2023-02-18T23:23:26.897Z,3.38
2023-02-18T23:30:28.531Z,2.97
2023-02-18T23:37:56.334Z,3.92
2023-02-18T23:44:57.894Z,4.78
2023-02-18T23:51:59.745Z,11.15
2023-02-18T23:59:04.462Z,5.40
